Meteo Giornale » Osservazioni meteo Italia » Torino-Caselle

ore: 09:20 - Osservazioni Meteo Torino-Caselle
Lat. 45° 13' N Lon. 7° 39' E Alt. 301 metri s.l.m.

molto_nuvoloso Europe/Rome

10 °C

Molto Nuvoloso

Temp. 24 Ore

0 °C

10 °C

Ovest/Nord-Ovest

20.3 Km/h

Dew point -7 °C

Umidità 29 %

Visibilità  10 Km

Il sole sorge alle ore 08:01

Il sole tramonta alle ore 17:17

Data e Ora Cielo e Fenomeni T °C DP °C Um. % Pres. hPa Vis. km Vento km/h
Oggi h: 09:20 molto_nuvoloso Molto Nuvoloso 10 -7 29 1002 10 O/NO 20.3
Oggi h: 08:50 molto_nuvoloso Molto Nuvoloso 9 -4 39 1001 10 O/SO 22.2
Oggi h: 08:20 nuvoloso Nuvoloso 8 -3 45 1000 10 SO 20.3
Oggi h: 07:50 nuvoloso Nuvoloso 5 -0 70 1000 10 SO 20.3
Oggi h: 07:20 molto_nuvoloso Molto Nuvoloso 3 1 86 1001 10 S/SO 13
Oggi h: 06:50 foschia Foschia 2 0 86 1000 4 N 5.5
Oggi h: 06:20 foschia Foschia 2 0 86 1000 3 SE 7.4
Oggi h: 05:50 foschia Foschia 1 0 93 999 3 E 11.1
Oggi h: 05:20 foschia Foschia 2 0 86 999 4 N 5.5
Oggi h: 04:50 foschia Foschia 2 0 86 999 4 S/SO 13
Oggi h: 04:20 foschia Foschia 2 0 86 999 4 N 5.5
Oggi h: 03:50 foschia Foschia 2 1 93 1000 4 N 5.5
Oggi h: 03:20 foschia Foschia 2 0 86 998 4 N 11.1
Oggi h: 02:20 nuvoloso Nuvoloso 1 -1 86 1000 10 N 5.5
Oggi h: 01:50 nuvoloso Nuvoloso 1 -0 93 999 7 NO 7.4
Oggi h: 01:20 sereno Sereno 0 -1 92 1000 7 N 3.7
Oggi h: 00:50 sereno Sereno 0 -2 86 1000 7 N 3.7
Oggi h: 00:20 sereno Sereno 0 -1 92 1000 7 N 5.5
Ieri h: 23:50 sereno Sereno 1 -2 80 1002 7 N 3.7
Ieri h: 23:20 sereno Sereno 0 -1 92 1002 7 N 5.5
Ieri h: 22:50 sereno Sereno 1 -1 86 1002 7 N 11.1
Ieri h: 22:20 sereno Sereno 1 -1 86 1002 7 N 3.7
Ieri h: 21:50 sereno Sereno 0 -2 86 1002 7 N 7.4
Ieri h: 21:20 sereno Sereno 2 -1 80 1002 7 N/NO 7.4
Ieri h: 20:50 sereno Sereno 1 -1 86 1003 7 N 7.4
Ieri h: 20:20 sereno Sereno 2 -0 86 1003 7 N 5.5
Ieri h: 19:50 sereno Sereno 2 -1 80 1003 6 NO 7.4
Ieri h: 19:20 sereno Sereno 3 -0 80 1004 7 N 5.5
Ieri h: 18:50 sereno Sereno 3 -0 80 1004 7 N 1.8
Ieri h: 18:20 sereno Sereno 4 -0 75 1004 8 N 1.8
Ieri h: 17:50 foschia Foschia 5 0 70 1005 4 N 1.8
Ieri h: 17:20 foschia Foschia 4 -0 75 1005 4 N 1.8
Ieri h: 16:50 foschia Foschia 5 0 70 1005 5 N 5.5
Ieri h: 16:20 foschia Foschia 6 -0 65 1006 5 N 5.5
Ieri h: 15:50 foschia Foschia 6 0 65 1006 5 N 5.5
Ieri h: 15:20 foschia Foschia 6 0 65 1006 5 N 5.5
Ieri h: 14:50 foschia Foschia 6 -0 65 1006 5 S 7.4
Ieri h: 14:20 foschia Foschia 6 -0 65 1007 5 N 5.5
Ieri h: 13:50 foschia Foschia 6 -0 65 1008 5 N 3.7
Ieri h: 13:20 foschia Foschia 6 -0 65 1008 5 N 5.5
Ieri h: 12:50 foschia Foschia 5 -1 65 1009 5 N 5.5
Ieri h: 12:20 foschia Foschia 5 1 75 1009 4 S 7.4
Ieri h: 11:50 foschia Foschia 4 2 86 1010 3 N 5.5
Ieri h: 11:20 foschia Foschia 4 2 86 1010 3 N 5.5
Ieri h: 10:50 foschia Foschia 4 2 86 1010 3 N 3.7
Ieri h: 10:20 foschia Foschia 3 1 86 1011 3 N 3.7
Ieri h: 09:50 foschia Foschia 3 1 86 1011 3 N 3.7
Ieri h: 09:20 foschia Foschia 2 1 93 1011 4 N 1.8
Ieri h: 08:50 foschia Foschia 2 1 93 1011 4 N 1.8